createdAt,value
2018-12-08T00:02:09.710Z,7.40
2018-12-08T00:04:41.618Z,7.40
2018-12-08T00:07:13.789Z,7.30
2018-12-08T00:09:46.032Z,7.40
2018-12-08T00:12:18.241Z,7.40
2018-12-08T00:14:50.414Z,7.40
2018-12-08T00:17:22.650Z,7.40
2018-12-08T00:19:55.995Z,7.40
2018-12-08T00:22:28.127Z,7.40
2018-12-08T00:25:00.559Z,7.50
2018-12-08T00:27:32.725Z,7.40
2018-12-08T00:30:14.816Z,7.40
2018-12-08T00:32:46.908Z,7.50
2018-12-08T00:35:18.853Z,7.50
2018-12-08T00:37:56.104Z,7.40
2018-12-08T00:40:28.435Z,7.40
2018-12-08T00:43:00.833Z,7.40
2018-12-08T00:45:32.877Z,7.40
2018-12-08T00:48:05.287Z,7.30
2018-12-08T00:50:37.279Z,7.20
2018-12-08T00:53:09.580Z,7.20
2018-12-08T00:55:42.085Z,7.30
2018-12-08T00:58:14.103Z,7.50
2018-12-08T01:00:46.244Z,7.40
2018-12-08T01:03:18.358Z,7.40
2018-12-08T01:05:50.593Z,7.40
2018-12-08T01:08:22.858Z,7.50
2018-12-08T01:10:55.278Z,7.60
2018-12-08T01:13:27.518Z,7.70
2018-12-08T01:15:59.927Z,7.80
2018-12-08T01:18:31.944Z,7.80
2018-12-08T01:21:04.355Z,7.80
2018-12-08T01:23:36.518Z,7.80
2018-12-08T01:26:08.630Z,7.90
2018-12-08T01:28:40.866Z,7.90
2018-12-08T01:31:13.155Z,7.90
2018-12-08T01:33:45.303Z,7.80
2018-12-08T01:36:21.885Z,7.90
2018-12-08T01:38:58.086Z,7.90
2018-12-08T01:41:30.168Z,8.00
2018-12-08T01:44:02.187Z,8.10
2018-12-08T01:46:34.530Z,8.00
2018-12-08T01:49:11.573Z,7.90
2018-12-08T01:51:43.769Z,7.90
2018-12-08T01:54:15.894Z,7.90
2018-12-08T01:56:48.342Z,7.90
2018-12-08T01:59:20.688Z,7.80
2018-12-08T02:01:52.779Z,7.80
2018-12-08T02:04:25.094Z,7.80
2018-12-08T02:06:57.142Z,7.80
2018-12-08T02:09:29.226Z,7.80
2018-12-08T02:12:05.758Z,7.80
2018-12-08T02:14:37.870Z,7.90
2018-12-08T02:17:10.235Z,7.90
2018-12-08T02:19:42.405Z,7.90
2018-12-08T02:22:14.679Z,7.90
2018-12-08T02:24:46.905Z,7.90
2018-12-08T02:27:19.213Z,7.90
2018-12-08T02:29:51.221Z,7.90
2018-12-08T02:32:23.714Z,7.80
2018-12-08T02:34:56.112Z,7.80
2018-12-08T02:37:32.640Z,7.80
2018-12-08T02:40:09.883Z,7.70
2018-12-08T02:42:42.083Z,7.70
2018-12-08T02:45:14.506Z,7.60
2018-12-08T02:47:50.949Z,7.50
2018-12-08T02:50:22.932Z,7.40
2018-12-08T02:52:55.187Z,7.40
2018-12-08T02:55:27.403Z,7.40
2018-12-08T02:57:59.820Z,7.30
2018-12-08T03:00:32.203Z,7.20
2018-12-08T03:03:04.545Z,7.20
2018-12-08T03:05:36.732Z,7.30
2018-12-08T03:08:08.980Z,7.40
2018-12-08T03:10:41.123Z,7.50
2018-12-08T03:13:13.227Z,7.50
2018-12-08T03:15:45.546Z,7.50
2018-12-08T03:18:17.766Z,7.40
2018-12-08T03:20:49.737Z,7.40
2018-12-08T03:23:22.041Z,7.40
2018-12-08T03:25:58.551Z,7.40
2018-12-08T03:28:30.952Z,7.40
2018-12-08T03:31:03.406Z,7.40
2018-12-08T03:33:35.878Z,7.40
2018-12-08T03:36:08.061Z,7.40
2018-12-08T03:38:40.143Z,7.50
2018-12-08T03:41:12.384Z,7.50
2018-12-08T03:43:44.578Z,7.50
2018-12-08T03:46:16.658Z,7.50
2018-12-08T03:48:49.078Z,7.60
2018-12-08T03:53:52.383Z,7.50
2018-12-08T03:56:24.703Z,7.50
2018-12-08T03:58:57.152Z,7.50
2018-12-08T04:01:33.248Z,7.50
2018-12-08T04:04:05.285Z,7.50
2018-12-08T04:06:41.677Z,7.60
2018-12-08T04:09:14.101Z,7.50
2018-12-08T04:11:46.441Z,7.50
2018-12-08T04:14:18.495Z,7.40
2018-12-08T04:16:50.807Z,7.40
2018-12-08T04:19:22.947Z,7.40
2018-12-08T04:21:55.250Z,7.50
2018-12-08T04:24:27.511Z,7.50
2018-12-08T04:27:04.003Z,7.60
2018-12-08T04:29:40.201Z,7.80
2018-12-08T04:32:12.305Z,7.80
2018-12-08T04:34:44.627Z,7.80
2018-12-08T04:37:17.018Z,7.70
2018-12-08T04:39:49.019Z,7.70
2018-12-08T04:42:21.363Z,7.60
2018-12-08T04:44:53.460Z,7.50
2018-12-08T04:47:25.672Z,7.30
2018-12-08T04:49:58.033Z,7.10
2018-12-08T04:52:30.313Z,6.80
2018-12-08T04:55:02.114Z,6.70
2018-12-08T04:57:34.305Z,6.50
2018-12-08T05:00:11.079Z,6.40
2018-12-08T05:02:43.215Z,6.30
2018-12-08T05:05:18.865Z,6.40
2018-12-08T05:07:50.994Z,6.40
2018-12-08T05:10:23.225Z,6.40
2018-12-08T05:12:55.455Z,6.40
2018-12-08T05:15:27.604Z,6.30
2018-12-08T05:17:59.842Z,6.20
2018-12-08T05:20:32.196Z,6.10
2018-12-08T05:23:04.603Z,6.00
2018-12-08T05:25:36.712Z,6.00
2018-12-08T05:28:08.811Z,6.00
2018-12-08T05:30:41.098Z,6.10
2018-12-08T05:33:13.308Z,6.10
2018-12-08T05:35:50.419Z,6.20
2018-12-08T05:38:27.757Z,6.20
2018-12-08T05:40:59.713Z,6.30
2018-12-08T05:43:36.088Z,6.70
2018-12-08T05:46:15.034Z,6.90
2018-12-08T05:48:47.201Z,7.00
2018-12-08T05:51:24.471Z,7.10
2018-12-08T05:53:56.263Z,7.30
2018-12-08T05:56:28.556Z,7.30
2018-12-08T05:59:00.784Z,7.30
2018-12-08T06:01:32.976Z,7.20
2018-12-08T06:04:05.180Z,7.20
2018-12-08T06:06:37.586Z,7.20
2018-12-08T06:09:09.898Z,7.30
2018-12-08T06:11:42.296Z,7.30
2018-12-08T06:14:14.512Z,7.30
2018-12-08T06:16:46.835Z,7.30
2018-12-08T06:19:19.290Z,7.20
2018-12-08T06:21:54.832Z,7.20
2018-12-08T06:24:27.194Z,7.30
2018-12-08T06:29:14.368Z,7.30
2018-12-08T06:31:46.778Z,7.30
2018-12-08T06:34:23.830Z,7.40
2018-12-08T06:37:02.967Z,7.50
2018-12-08T06:39:34.857Z,7.60
2018-12-08T06:42:12.031Z,7.60
2018-12-08T06:44:51.035Z,7.60
2018-12-08T06:47:23.087Z,7.60
2018-12-08T06:49:55.017Z,7.50
2018-12-08T06:52:32.186Z,7.40
2018-12-08T06:55:04.484Z,7.50
2018-12-08T06:57:36.239Z,7.60
2018-12-08T07:00:08.503Z,7.60
2018-12-08T07:02:45.906Z,7.50
2018-12-08T07:05:24.650Z,7.50
2018-12-08T07:07:56.989Z,7.60
2018-12-08T07:10:33.145Z,7.60
2018-12-08T07:13:05.484Z,7.60
2018-12-08T07:15:37.620Z,7.60
2018-12-08T07:18:16.714Z,7.60
2018-12-08T07:20:48.926Z,7.60
2018-12-08T07:23:21.264Z,7.70
2018-12-08T07:25:57.274Z,7.80
2018-12-08T07:28:29.472Z,7.80
2018-12-08T07:31:01.930Z,7.90
2018-12-08T07:33:34.231Z,7.90
2018-12-08T07:36:06.130Z,7.90
2018-12-08T07:38:38.252Z,7.90
2018-12-08T07:41:13.904Z,8.00
2018-12-08T07:43:45.935Z,8.00
2018-12-08T07:46:18.300Z,8.00
2018-12-08T07:48:50.410Z,7.90
2018-12-08T07:51:29.377Z,8.00
2018-12-08T07:54:01.436Z,8.00
2018-12-08T07:56:38.624Z,7.90
2018-12-08T07:59:15.704Z,8.00
2018-12-08T08:01:47.788Z,8.00
2018-12-08T08:04:23.342Z,8.00
2018-12-08T08:06:55.564Z,8.00
2018-12-08T08:09:27.860Z,8.10
2018-12-08T08:12:00.219Z,8.10
2018-12-08T08:14:32.550Z,8.20
2018-12-08T08:17:04.811Z,8.20
2018-12-08T08:19:41.271Z,8.30
2018-12-08T08:22:13.581Z,8.30
2018-12-08T08:24:49.759Z,8.30
2018-12-08T08:27:22.019Z,8.20
2018-12-08T08:29:54.468Z,8.20
2018-12-08T08:32:26.607Z,8.30
2018-12-08T08:34:58.765Z,8.30
2018-12-08T08:37:30.813Z,8.40
2018-12-08T08:40:03.311Z,8.50
2018-12-08T08:42:40.659Z,8.50
2018-12-08T08:45:13.268Z,8.60
2018-12-08T08:47:45.315Z,8.60
2018-12-08T08:50:17.691Z,8.60
2018-12-08T08:52:49.789Z,8.60
2018-12-08T08:55:22.227Z,8.60
2018-12-08T08:57:54.414Z,8.50
2018-12-08T09:00:26.861Z,8.60
2018-12-08T09:05:31.701Z,8.60
2018-12-08T09:08:03.534Z,8.60
2018-12-08T09:10:35.842Z,8.60
2018-12-08T09:13:07.936Z,8.60
2018-12-08T09:15:40.402Z,8.60
2018-12-08T09:18:12.640Z,8.60
2018-12-08T09:20:44.652Z,8.60
2018-12-08T09:23:20.194Z,8.70
2018-12-08T09:25:52.657Z,8.70
2018-12-08T09:28:24.776Z,8.60
2018-12-08T09:30:57.119Z,8.70
2018-12-08T09:33:29.402Z,8.70
2018-12-08T09:36:01.688Z,8.70
2018-12-08T09:38:39.018Z,8.70
2018-12-08T09:41:11.349Z,8.60
2018-12-08T09:43:47.778Z,8.60
2018-12-08T09:46:20.126Z,8.60
2018-12-08T09:48:52.231Z,8.60
2018-12-08T09:51:24.557Z,8.60
2018-12-08T09:53:56.739Z,8.60
2018-12-08T09:56:28.933Z,8.60
2018-12-08T09:59:05.559Z,8.60
2018-12-08T10:01:37.775Z,8.60
2018-12-08T10:04:10.211Z,8.60
2018-12-08T10:06:42.139Z,8.70
2018-12-08T10:11:51.850Z,8.80
2018-12-08T10:14:23.929Z,8.80
2018-12-08T10:16:56.154Z,8.80
2018-12-08T10:19:28.574Z,8.80
2018-12-08T10:22:00.798Z,8.80
2018-12-08T10:24:38.384Z,8.80
2018-12-08T10:27:13.938Z,8.80
2018-12-08T10:29:52.804Z,8.80
2018-12-08T10:32:25.227Z,8.80
2018-12-08T10:34:57.658Z,8.80
2018-12-08T10:37:29.691Z,8.80
2018-12-08T10:40:01.793Z,8.80
2018-12-08T10:42:34.071Z,8.80
2018-12-08T10:45:11.351Z,8.80
2018-12-08T10:47:43.534Z,8.70
2018-12-08T10:50:15.778Z,8.60
2018-12-08T10:52:47.502Z,8.50
2018-12-08T10:55:24.458Z,8.50
2018-12-08T10:57:56.925Z,8.50
2018-12-08T11:00:34.208Z,8.40
2018-12-08T11:03:11.581Z,8.40
2018-12-08T11:05:47.259Z,8.40
2018-12-08T11:08:19.179Z,8.40
2018-12-08T11:10:51.601Z,8.40
2018-12-08T11:13:28.119Z,8.40
2018-12-08T11:16:00.366Z,8.40
2018-12-08T11:18:32.737Z,8.40
2018-12-08T11:21:08.865Z,8.30
2018-12-08T11:23:40.925Z,8.30
2018-12-08T11:26:13.243Z,8.30
2018-12-08T11:28:45.712Z,8.30
2018-12-08T11:31:22.136Z,8.40
2018-12-08T11:33:54.449Z,8.50
2018-12-08T11:36:26.341Z,8.50
2018-12-08T11:38:56.778Z,8.50
2018-12-08T11:41:28.941Z,8.60
2018-12-08T11:44:01.371Z,8.60
2018-12-08T11:46:33.057Z,8.60
2018-12-08T11:49:05.170Z,8.70
2018-12-08T11:51:37.402Z,8.60
2018-12-08T11:54:09.507Z,8.60
2018-12-08T11:56:45.135Z,8.60
2018-12-08T11:59:17.292Z,8.50
2018-12-08T12:01:49.692Z,8.50
2018-12-08T12:04:21.884Z,8.40
2018-12-08T12:06:54.322Z,8.40
2018-12-08T12:09:26.557Z,8.40
2018-12-08T12:11:58.579Z,8.30
2018-12-08T12:14:47.819Z,8.20
2018-12-08T12:17:23.355Z,8.20
2018-12-08T12:19:55.637Z,8.20
2018-12-08T12:22:27.952Z,8.30
2018-12-08T12:25:00.288Z,8.30
2018-12-08T12:27:32.592Z,8.30
2018-12-08T12:30:05.438Z,8.30
2018-12-08T12:32:37.307Z,8.20
2018-12-08T12:35:09.401Z,8.20
2018-12-08T12:37:41.653Z,8.20
2018-12-08T12:40:17.132Z,8.20
2018-12-08T12:42:49.549Z,8.20
2018-12-08T12:45:22.134Z,8.20
2018-12-08T12:47:54.353Z,8.20
2018-12-08T12:50:26.791Z,8.30
2018-12-08T12:52:59.084Z,8.20
2018-12-08T12:55:31.550Z,8.20
2018-12-08T12:58:03.876Z,8.20
2018-12-08T13:00:40.266Z,8.20
2018-12-08T13:03:15.990Z,8.20
2018-12-08T13:05:47.952Z,8.20
2018-12-08T13:08:20.294Z,8.20
2018-12-08T13:10:52.505Z,8.10
2018-12-08T13:13:24.683Z,8.10
2018-12-08T13:15:56.960Z,8.00
2018-12-08T13:18:29.262Z,8.00
2018-12-08T13:21:01.463Z,8.10
2018-12-08T13:23:34.075Z,8.10
2018-12-08T13:26:06.220Z,8.10
2018-12-08T13:28:38.527Z,8.10
2018-12-08T13:31:10.725Z,8.10
2018-12-08T13:33:42.946Z,8.00
2018-12-08T13:36:19.339Z,7.90
2018-12-08T13:38:51.839Z,7.90
2018-12-08T13:41:24.033Z,7.80
2018-12-08T13:43:56.325Z,7.80
2018-12-08T13:46:28.350Z,7.80
2018-12-08T13:49:00.456Z,7.80
2018-12-08T13:51:32.610Z,7.70
2018-12-08T13:54:10.864Z,7.70
2018-12-08T13:56:43.162Z,7.60
2018-12-08T13:59:15.372Z,7.60
2018-12-08T14:01:47.508Z,7.60
2018-12-08T14:04:19.612Z,7.60
2018-12-08T14:06:51.918Z,7.60
2018-12-08T14:09:28.873Z,7.60
2018-12-08T14:12:01.060Z,7.60
2018-12-08T14:14:38.544Z,7.50
2018-12-08T14:47:44.414Z,7.40
2018-12-08T14:50:16.489Z,7.30
2018-12-08T14:52:49.004Z,7.30
2018-12-08T14:55:21.005Z,7.30
2018-12-08T14:57:57.159Z,7.20
2018-12-08T15:00:29.597Z,7.20
2018-12-08T15:03:01.839Z,7.20
2018-12-08T15:05:33.338Z,7.10
2018-12-08T15:08:05.842Z,7.10
2018-12-08T15:10:38.027Z,7.10
2018-12-08T15:13:13.610Z,7.00
2018-12-08T15:15:45.731Z,7.00
2018-12-08T15:18:22.260Z,7.00
2018-12-08T15:20:58.600Z,7.00
2018-12-08T15:23:30.760Z,7.00
2018-12-08T15:26:03.110Z,6.90
2018-12-08T15:28:35.102Z,6.90
2018-12-08T15:31:07.366Z,7.00
2018-12-08T15:33:39.874Z,6.90
2018-12-08T15:36:12.083Z,7.00
2018-12-08T15:38:44.419Z,6.90
2018-12-08T15:41:16.598Z,6.90
2018-12-08T15:43:49.279Z,6.90
2018-12-08T15:46:21.226Z,6.90
2018-12-08T15:48:53.659Z,6.90
2018-12-08T15:51:25.581Z,6.90
2018-12-08T15:53:59.249Z,6.90
2018-12-08T15:56:34.802Z,6.90
2018-12-08T15:59:11.125Z,6.90
2018-12-08T16:01:43.552Z,7.00
2018-12-08T16:04:15.827Z,7.00
2018-12-08T16:06:47.919Z,6.90
2018-12-08T16:09:20.024Z,6.90
2018-12-08T16:11:52.421Z,6.90
2018-12-08T16:14:24.825Z,6.90
2018-12-08T16:17:00.438Z,6.80
2018-12-08T16:19:32.626Z,6.80
2018-12-08T16:22:04.864Z,6.80
2018-12-08T16:24:37.178Z,6.80
2018-12-08T16:27:09.288Z,6.80
2018-12-08T16:29:44.874Z,6.70
2018-12-08T16:32:22.232Z,6.70
2018-12-08T16:34:54.273Z,6.60
2018-12-08T16:37:26.584Z,6.50
2018-12-08T16:39:58.643Z,6.50
2018-12-08T16:42:30.758Z,6.40
2018-12-08T16:45:03.105Z,6.40
2018-12-08T16:47:35.109Z,6.40
2018-12-08T16:50:09.212Z,6.40
2018-12-08T16:52:45.635Z,6.40
2018-12-08T16:55:18.058Z,6.30
2018-12-08T16:57:50.373Z,6.30
2018-12-08T17:00:22.789Z,6.30
2018-12-08T17:02:55.214Z,6.40
2018-12-08T17:05:27.220Z,6.30
2018-12-08T17:07:59.821Z,6.30
2018-12-08T17:10:32.018Z,6.30
2018-12-08T17:13:04.342Z,6.30
2018-12-08T17:15:36.538Z,6.30
2018-12-08T17:18:09.077Z,6.30
2018-12-08T17:20:41.387Z,6.30
2018-12-08T17:23:17.067Z,6.30
2018-12-08T17:25:53.611Z,6.30
2018-12-08T17:28:29.099Z,6.30
2018-12-08T17:31:01.515Z,6.30
2018-12-08T17:33:33.798Z,6.30
2018-12-08T17:36:05.986Z,6.20
2018-12-08T17:38:38.101Z,6.30
2018-12-08T17:41:10.369Z,6.20
2018-12-08T17:43:42.440Z,6.20
2018-12-08T17:46:14.622Z,6.20
2018-12-08T17:48:50.167Z,6.30
2018-12-08T17:51:22.476Z,6.20
2018-12-08T17:53:54.925Z,6.20
2018-12-08T17:56:26.856Z,6.20
2018-12-08T17:58:58.970Z,6.20
2018-12-08T18:01:31.406Z,6.20
2018-12-08T18:04:06.958Z,6.20
2018-12-08T18:06:39.227Z,6.20
2018-12-08T18:09:11.669Z,6.20
2018-12-08T18:11:43.789Z,6.20
2018-12-08T18:14:15.995Z,6.20
2018-12-08T18:16:48.080Z,6.20
2018-12-08T18:19:20.511Z,6.20
2018-12-08T18:21:56.752Z,6.20
2018-12-08T18:24:33.873Z,6.10
2018-12-08T18:27:05.995Z,6.00
2018-12-08T18:29:38.275Z,5.90
2018-12-08T18:32:10.649Z,5.80
2018-12-08T18:34:47.105Z,5.90
2018-12-08T18:37:22.657Z,5.90
2018-12-08T18:39:54.798Z,5.90
2018-12-08T18:42:32.070Z,5.90
2018-12-08T18:45:07.922Z,5.90
2018-12-08T18:47:40.176Z,5.90
2018-12-08T18:50:12.005Z,5.90
2018-12-08T18:52:47.573Z,5.80
2018-12-08T18:55:23.985Z,5.80
2018-12-08T18:57:56.354Z,5.80
2018-12-08T19:00:33.032Z,5.80
2018-12-08T19:03:05.045Z,5.80
2018-12-08T19:05:37.166Z,5.80
2018-12-08T19:08:09.507Z,5.70
2018-12-08T19:10:45.176Z,5.70
2018-12-08T19:13:17.488Z,5.70
2018-12-08T19:15:53.147Z,5.70
2018-12-08T19:18:25.246Z,5.60
2018-12-08T19:20:57.370Z,5.60
2018-12-08T19:23:29.768Z,5.50
2018-12-08T19:26:06.445Z,5.50
2018-12-08T19:28:38.615Z,5.50
2018-12-08T19:31:10.208Z,5.50
2018-12-08T19:33:42.320Z,5.50
2018-12-08T19:36:17.847Z,5.50
2018-12-08T19:38:50.274Z,5.50
2018-12-08T19:41:22.748Z,5.50
2018-12-08T19:43:54.851Z,5.50
2018-12-08T19:46:30.988Z,5.50
2018-12-08T19:49:03.375Z,5.50
2018-12-08T19:51:40.694Z,5.50
2018-12-08T19:54:12.917Z,5.60
2018-12-08T19:56:45.261Z,5.60
2018-12-08T19:59:17.587Z,5.60
2018-12-08T20:01:49.823Z,5.60
2018-12-08T20:04:25.945Z,5.60
2018-12-08T20:06:58.689Z,5.60
2018-12-08T20:09:30.588Z,5.50
2018-12-08T20:12:02.735Z,5.50
2018-12-08T20:14:34.833Z,5.50
2018-12-08T20:17:06.924Z,5.60
2018-12-08T20:19:39.089Z,5.60
2018-12-08T20:22:11.291Z,5.60
2018-12-08T20:24:43.554Z,5.60
2018-12-08T20:27:19.108Z,5.60
2018-12-08T20:29:51.231Z,5.60
2018-12-08T20:32:23.710Z,5.60
2018-12-08T20:34:55.703Z,5.60
2018-12-08T20:37:28.090Z,5.60
2018-12-08T20:40:00.308Z,5.60
2018-12-08T20:42:32.734Z,5.60
2018-12-08T20:45:05.268Z,5.60
2018-12-08T20:47:40.912Z,5.60
2018-12-08T20:50:13.262Z,5.60
2018-12-08T20:52:45.347Z,5.60
2018-12-08T20:55:17.377Z,5.60
2018-12-08T20:57:49.720Z,5.60
2018-12-08T21:00:21.826Z,5.60
2018-12-08T21:02:54.034Z,5.60
2018-12-08T21:05:26.372Z,5.60
2018-12-08T21:07:58.412Z,5.60
2018-12-08T21:10:34.736Z,5.60
2018-12-08T21:13:07.102Z,5.70
2018-12-08T21:15:39.306Z,5.60
2018-12-08T21:18:15.547Z,5.60
2018-12-08T21:20:47.880Z,5.60
2018-12-08T21:23:20.286Z,5.70
2018-12-08T21:25:52.507Z,5.70
2018-12-08T21:28:28.015Z,5.80
2018-12-08T21:31:00.421Z,5.90
2018-12-08T21:33:32.433Z,6.00
2018-12-08T21:36:04.470Z,6.00
2018-12-08T21:38:36.820Z,6.00
2018-12-08T21:41:09.167Z,6.00
2018-12-08T21:43:41.519Z,6.00
2018-12-08T21:46:13.624Z,6.00
2018-12-08T21:48:46.067Z,6.00
2018-12-08T21:51:18.198Z,5.90
2018-12-08T21:53:50.283Z,6.00
2018-12-08T21:56:22.635Z,6.00
2018-12-08T21:58:54.815Z,6.10
2018-12-08T22:01:27.248Z,6.10
2018-12-08T22:03:59.653Z,6.10
2018-12-08T22:06:31.968Z,6.10
2018-12-08T22:09:05.323Z,6.00
2018-12-08T22:11:37.320Z,5.90
2018-12-08T22:14:09.717Z,5.90
2018-12-08T22:16:42.112Z,5.90
2018-12-08T22:19:14.291Z,5.90
2018-12-08T22:21:46.427Z,5.80
2018-12-08T22:24:18.761Z,5.70
2018-12-08T22:26:54.391Z,5.70
2018-12-08T22:29:29.980Z,5.70
2018-12-08T22:32:02.118Z,5.70
2018-12-08T22:34:34.421Z,5.70
2018-12-08T22:37:06.900Z,5.70
2018-12-08T22:39:39.105Z,5.60
2018-12-08T22:42:11.301Z,5.60
2018-12-08T22:44:43.686Z,5.70
2018-12-08T22:47:16.047Z,5.80
2018-12-08T22:49:52.399Z,5.80
2018-12-08T22:52:28.643Z,5.80
2018-12-08T22:55:04.422Z,5.80
2018-12-08T22:57:36.834Z,5.90
2018-12-08T23:00:45.790Z,6.00
2018-12-08T23:03:17.558Z,6.00
2018-12-08T23:05:49.559Z,6.00
2018-12-08T23:08:21.781Z,6.10
2018-12-08T23:10:54.070Z,6.10
2018-12-08T23:13:30.632Z,6.00
2018-12-08T23:16:02.898Z,5.90
2018-12-08T23:18:34.977Z,5.80
2018-12-08T23:21:07.309Z,5.80
2018-12-08T23:23:39.343Z,5.80
2018-12-08T23:26:11.556Z,5.70
2018-12-08T23:28:43.864Z,5.70
2018-12-08T23:31:16.277Z,5.70
2018-12-08T23:33:48.496Z,5.70
2018-12-08T23:36:20.833Z,5.60
2018-12-08T23:38:53.142Z,5.70
2018-12-08T23:41:25.495Z,5.80
2018-12-08T23:43:57.589Z,6.00
2018-12-08T23:46:29.818Z,6.10
2018-12-08T23:49:01.928Z,6.10
2018-12-08T23:51:37.432Z,6.10
2018-12-08T23:54:09.728Z,6.00
2018-12-08T23:56:41.812Z,6.10
2018-12-08T23:59:17.362Z,6.30
